Aviation Digital Data Service (ADDS)

Output produced by METARs form (1438 UTC 19 April 2014)
found at http://aviationweather.gov/adds/metars/
 
KRWI 191126Z 1912/2012 02010KT P6SM -RA OVC070 
     FM191600 04012G22KT P6SM -RA SCT009 BKN015 OVC050 
     FM192100 04010G17KT P6SM OVC060